Details From LBSF - Sofia
To LBBG - Burgas
Flight Number -
Tags Routegen
Created
Modified
Stats Distance 219 nm / 406 km
Max Altitude 0 ft / 0 m
Waypoints 5
Social Downloads 6
Likes 0
Share VATSIM

Download

Looking for another format? Having issues loading an existing format? Contact us
Advertisement - Login to hide

Notes

None

Route

LBSF +42.71_+023.19 +42.85_+023.21 +42.25_+027.09 LBBG

ID Type Via Altitude (ft/m) Position (lat/lon) Dist (leg/tot) Name
O LBSF APT - 0 / 0 42.69629 / 23.38894 - / 0 nm
+42.71_+023.19 DME - 0 / 0 42.70869 / 23.19272 8 / 8 nm
+42.85_+023.21 DME - 0 / 0 42.85287 / 23.20981 8 / 17 nm
+42.25_+027.09 DME - 0 / 0 42.24822 / 27.09211 175 / 192 nm
O LBBG APT - 0 / 0 42.55983 / 27.50160 26 / 219 nm

Altitude Profile

Advertisement - Login to hide

Weather


0- 5 10 15 20 25 30 35+ Temperature / °C

Clouds and Precipitation
Forecast for 2018-10-21 18:00 UTC. Updated 3 hours ago

Ground ~20,000 ft ~40,000 ft Winds

LBSF

Details ICAO LBSF (SOF)
Name Sofia
Region Bulgaria
Timezone Europe/Sofia (UTC+3.0)
Stats Elevation 1,741 ft / 531 m (AMSL)
Location 42.414200° 23.243000°
Runways 1
Magnetic Variation 4.963° E

METAR

LBSF 211830Z 27007KT 8000 BKN039 10/06 Q1021 NOSIG

Decode

TAF

TAF LBSF 211700Z 2118/2218 10006KT 8000 SCT020 BKN035 TEMPO 2118/2122 5000 RA BR PROB30 2118/2120 SHRA BKN025 FEW028CB TEMPO 2202/2206 3000 BR BECMG 2206/2208 08010KT 9999 SCT050 BKN080

Decode

Departure Runways

ID Width Length Bearing (true/mag) Surface Threshold Overrun Markings Lighting
09 148 ft / 45 m 11,777 ft / 3,590 m 94.64° / 89.68° ASPHALT 978 ft / 298 m 390 ft / 119 m PREC-APP CENTERLINE EDGE THRESHOLD ALSF-I REIL-OMNI
27 148 ft / 45 m 11,777 ft / 3,590 m 274.67° / 269.71° ASPHALT 0 ft / 0 m 397 ft / 121 m PREC-APP CENTERLINE EDGE THRESHOLD ALSF-II TDZ REIL-OMNI

LBBG

Details ICAO LBBG (BOJ)
Name Burgas
Region Bulgaria
Timezone Europe/Sofia (UTC+3.0)
Stats Elevation 134 ft / 41 m (AMSL)
Location 42.570100° 27.515300°
Runways 1
Magnetic Variation 5.590° E

METAR

LBBG 211830Z 05006KT 5000 BR FEW019 BKN024 BKN048 15/14 Q1020 TEMPO 3000 BR

Decode

TAF

TAF TAF LBBG 211700Z 2118/2218 VRB04KT 1500 BR SCT010 BKN015 PROB30 TEMPO 2118/2205 0300 BCFG BKN003 BECMG 2205/2207 03016KT 7000 SCT025 BKN040

Decode

Destination Runways

ID Width Length Bearing (true/mag) Surface Threshold Overrun Markings Lighting
04 148 ft / 45 m 10,509 ft / 3,203 m 44.26° / 38.67° CONCRETE 0 ft / 0 m 0 ft / 0 m PREC-APP CENTERLINE EDGE THRESHOLD ALSF-I
22 148 ft / 45 m 10,509 ft / 3,203 m 224.28° / 218.69° CONCRETE 0 ft / 0 m 0 ft / 0 m PREC-APP CENTERLINE EDGE THRESHOLD ALSF-II TDZ

Approach Navaids

Runway Type Ident Frequency Range Bearing (true/mag) Slope Elevation
22 OM OM - - 224.28° / 218.69 ° - 135 ft / 41 m (AMSL)
22 GS IBG 110.30 MHz 10 nm / 19 km 224.27° / 218.68 ° 3.00° 134 ft / 41 m (AMSL)
22 MM MM - - 224.28° / 218.69 ° - 135 ft / 41 m (AMSL)
22 LOC-ILS IBG 110.30 MHz 18 nm / 33 km 224.27° / 218.68 ° - 134 ft / 41 m (AMSL)

Popular Alternatives